Dahlonega, Georgia
Current Conditions -  °F | °C
As of 3:53 AM on Sunday 21 Dec 2014 (Local Time) from KGVL Reporting Station
Haze Haze  
Wind Chill: 39°   Ceiling: 300
Heat Index: 43°   Visibility: 2.5mi
Dew Point: 41°   Wind: 7mph
Humidity: 93%   Direction: 70°ENE
Pressure: 30.21"   Gusts: NA
Location:  34.54°N, 83.98°W
Report Text: KGVL 210853Z AUTO 07006KT 2 1/2SM BR OVC003 06/05 A3021 RMK AO2 SLP232 T00610050 55001
Loading
Personal Weather Stations






























Interactive Weather Map New forecast layout! Learn more

10-Day Weather Forecast

Advertisements
Track Severe Weather on mobile